Time;durP1;ratioP1;P1;durP2;ratioP2;P2;SDS_P1;SDS_P2;PMS_P1;PMS_P2;Temp;Humidity;BMP_temperature;BMP_pressure;BME280_temperature;BME280_humidity;BME280_pressure;Samples;Min_cycle;Max_cycle;Signal;HPM_P1;HPM_P2
2023/01/29 00:01:27;;;;;;;16.80;12.27;;;4.00;99.90;;;;;;5013988;28;20046;-49
2023/01/29 00:03:53;;;;;;;16.35;10.88;;;4.00;99.90;;;;;;5014830;28;20139;-46
2023/01/29 00:06:18;;;;;;;16.00;11.00;;;4.00;99.90;;;;;;5015728;28;20499;-43
2023/01/29 00:08:45;;;;;;;12.90;10.57;;;4.00;99.90;;;;;;5015530;28;20567;-48
2023/01/29 00:11:11;;;;;;;14.82;11.07;;;4.10;99.90;;;;;;5013894;28;20049;-49
2023/01/29 00:13:37;;;;;;;16.92;10.95;;;4.10;99.90;;;;;;5014447;28;20057;-46
2023/01/29 00:16:03;;;;;;;14.48;10.63;;;4.10;99.90;;;;;;5015412;28;20345;-47
2023/01/29 00:18:29;;;;;;;13.32;10.38;;;4.00;99.90;;;;;;5015037;28;20048;-46
2023/01/29 00:20:55;;;;;;;14.48;10.90;;;4.00;99.90;;;;;;5013550;28;20038;-46
2023/01/29 00:23:22;;;;;;;13.93;9.98;;;4.00;99.90;;;;;;5013524;28;20484;-47
2023/01/29 00:25:48;;;;;;;12.88;9.88;;;4.00;99.90;;;;;;5015151;28;20049;-47
2023/01/29 00:28:14;;;;;;;13.40;10.65;;;4.00;99.90;;;;;;5014430;28;20045;-46
2023/01/29 00:30:40;;;;;;;13.15;10.02;;;4.00;99.90;;;;;;5013832;28;20333;-47
2023/01/29 00:33:06;;;;;;;15.60;10.38;;;4.00;99.90;;;;;;5014128;28;20056;-45
2023/01/29 00:35:32;;;;;;;14.75;10.43;;;4.10;99.90;;;;;;5014882;28;20391;-48
2023/01/29 00:37:58;;;;;;;12.85;10.40;;;4.10;99.90;;;;;;5014327;28;20064;-45
2023/01/29 00:40:26;;;;;;;15.23;10.13;;;4.10;99.90;;;;;;5011887;28;20516;-43
2023/01/29 00:45:37;;;;;;;14.98;10.65;;;4.10;99.90;;;;;;5013690;28;20057;-44
2023/01/29 00:48:03;;;;;;;13.10;9.30;;;4.10;99.90;;;;;;5014469;28;20045;-49
2023/01/29 00:50:29;;;;;;;15.63;10.07;;;4.10;99.90;;;;;;5013384;28;20422;-48
2023/01/29 00:52:55;;;;;;;12.15;9.65;;;4.10;99.90;;;;;;5013861;28;20115;-49
2023/01/29 00:55:21;;;;;;;16.00;9.88;;;4.10;99.90;;;;;;5014102;28;20045;-49
2023/01/29 00:57:47;;;;;;;13.55;11.23;;;4.10;99.90;;;;;;5014564;28;20049;-46
2023/01/29 01:00:15;;;;;;;12.43;10.30;;;4.10;99.90;;;;;;5011943;28;20555;-44
2023/01/29 01:05:26;;;;;;;11.77;9.80;;;4.10;99.90;;;;;;5014060;28;20045;-47
2023/01/29 01:07:54;;;;;;;13.35;10.10;;;4.10;99.90;;;;;;5014424;28;20095;-46
2023/01/29 01:10:30;;;;;;;13.65;9.82;;;4.10;99.90;;;;;;5013435;28;20052;-43
2023/01/29 01:13:01;;;;;;;12.13;10.38;;;4.10;99.90;;;;;;5007207;28;20049;-47
2023/01/29 01:15:33;;;;;;;12.77;10.32;;;4.10;99.90;;;;;;5013807;28;20049;-46
2023/01/29 01:18:01;;;;;;;14.25;9.73;;;4.10;99.90;;;;;;5014387;28;20571;-46
2023/01/29 01:20:29;;;;;;;13.95;10.30;;;4.10;99.90;;;;;;5013497;28;20048;-42
2023/01/29 01:22:55;;;;;;;12.45;10.32;;;4.10;99.90;;;;;;5014164;28;20068;-43
2023/01/29 01:25:22;;;;;;;14.25;10.70;;;4.10;99.90;;;;;;5014560;28;20480;-53
2023/01/29 01:27:55;;;;;;;12.57;9.90;;;4.10;99.90;;;;;;5013619;28;20061;-46
2023/01/29 01:30:20;;;;;;;12.90;9.27;;;4.10;99.90;;;;;;5028626;28;20048;-49
2023/01/29 01:32:46;;;;;;;12.30;9.90;;;4.10;99.90;;;;;;5014560;28;20045;-43
2023/01/29 01:35:15;;;;;;;14.18;10.10;;;4.10;99.90;;;;;;5013232;28;20045;-43
2023/01/29 01:37:41;;;;;;;12.93;10.82;;;4.10;99.90;;;;;;5029270;28;20045;-48
2023/01/29 01:40:19;;;;;;;13.93;9.95;;;4.20;99.90;;;;;;5012537;28;20045;-47
2023/01/29 01:42:49;;;;;;;15.05;10.93;;;4.10;99.90;;;;;;5013022;28;20116;-46
2023/01/29 01:45:23;;;;;;;15.32;10.80;;;4.20;99.90;;;;;;5013094;28;20128;-46
2023/01/29 01:48:01;;;;;;;13.90;10.38;;;4.20;99.90;;;;;;5012145;28;20474;-42
2023/01/29 01:50:37;;;;;;;14.80;10.05;;;4.10;99.90;;;;;;5010889;28;20049;-45
2023/01/29 01:53:11;;;;;;;14.90;11.05;;;4.10;99.90;;;;;;5013779;28;20068;-46
2023/01/29 01:55:44;;;;;;;14.40;10.57;;;4.20;99.90;;;;;;5011965;28;20046;-46
2023/01/29 01:58:15;;;;;;;14.18;10.18;;;4.20;99.90;;;;;;5013511;28;20048;-45
2023/01/29 02:00:41;;;;;;;14.48;11.18;;;4.10;99.90;;;;;;5012395;28;20397;-48
2023/01/29 02:11:45;;;;;;;13.20;11.30;;;4.20;99.90;;;;;;5013428;28;20787;-45
2023/01/29 02:14:11;;;;;;;14.93;11.75;;;4.20;99.90;;;;;;5017440;28;20041;-46
2023/01/29 02:16:37;;;;;;;15.00;11.93;;;4.20;99.90;;;;;;5016594;28;20053;-46
2023/01/29 02:19:09;;;;;;;16.60;12.38;;;4.20;99.90;;;;;;5017850;28;20050;-48
2023/01/29 02:22:06;;;;;;;14.82;12.40;;;4.20;99.90;;;;;;5015066;28;20571;-47
2023/01/29 02:24:57;;;;;;;15.27;12.00;;;4.20;99.90;;;;;;5017177;28;20054;-48
2023/01/29 02:27:36;;;;;;;16.73;12.95;;;4.20;99.90;;;;;;5017360;28;20156;-45
2023/01/29 02:30:30;;;;;;;14.70;12.00;;;4.20;99.90;;;;;;5015944;28;20484;-45
2023/01/29 02:33:08;;;;;;;13.77;11.82;;;4.20;99.90;;;;;;5016917;28;20045;-43
2023/01/29 02:35:41;;;;;;;15.98;12.50;;;4.20;99.90;;;;;;5017365;28;20049;-46
2023/01/29 02:38:16;;;;;;;18.60;13.23;;;4.20;99.90;;;;;;5017225;28;20454;-48
2023/01/29 02:40:51;;;;;;;14.18;12.30;;;4.20;99.90;;;;;;5030858;28;20046;-50
2023/01/29 02:43:36;;;;;;;15.60;12.63;;;4.20;99.90;;;;;;5017159;28;20471;-43
2023/01/29 02:46:16;;;;;;;14.88;12.73;;;4.20;99.90;;;;;;5017562;28;20606;-44
2023/01/29 02:49:29;;;;;;;17.15;13.10;;;4.20;99.90;;;;;;5016557;28;20550;-45
2023/01/29 02:52:13;;;;;;;16.92;13.57;;;4.20;99.90;;;;;;4973484;28;20073;-43
2023/01/29 02:54:42;;;;;;;16.48;12.85;;;4.20;99.90;;;;;;4974068;28;20050;-45
2023/01/29 02:57:24;;;;;;;17.00;13.80;;;4.20;99.90;;;;;;4973835;28;20080;-45
2023/01/29 02:59:54;;;;;;;19.25;14.40;;;4.20;99.90;;;;;;4972975;28;20112;-45
2023/01/29 03:02:52;;;;;;;20.50;13.57;;;4.20;99.90;;;;;;4973498;28;20192;-48
2023/01/29 03:05:43;;;;;;;19.55;13.27;;;4.20;99.90;;;;;;4973960;28;20050;-50
2023/01/29 03:08:15;;;;;;;16.90;14.23;;;4.20;99.90;;;;;;4973879;28;20054;-43
2023/01/29 03:10:54;;;;;;;15.50;13.82;;;4.20;99.90;;;;;;4956818;28;20062;-48
2023/01/29 03:13:39;;;;;;;18.95;14.27;;;4.20;99.90;;;;;;4974481;28;20057;-45
2023/01/29 03:16:34;;;;;;;19.70;15.65;;;4.20;99.90;;;;;;4974109;28;20055;-50
2023/01/29 03:19:33;;;;;;;21.65;16.48;;;4.20;99.90;;;;;;4964473;28;20057;-43
2023/01/29 03:22:03;;;;;;;20.73;15.80;;;4.20;99.90;;;;;;4984901;28;20096;-43
2023/01/29 03:32:52;;;;;;;20.33;14.80;;;4.20;99.90;;;;;;5013941;28;20057;-48
2023/01/29 03:35:35;;;;;;;18.20;15.20;;;4.20;99.90;;;;;;5015541;28;20377;-45
2023/01/29 03:38:08;;;;;;;19.65;14.70;;;4.20;99.90;;;;;;5016161;28;20045;-48
2023/01/29 03:41:13;;;;;;;20.90;15.13;;;4.20;99.90;;;;;;5014015;28;20049;-49
2023/01/29 03:44:08;;;;;;;18.67;14.88;;;4.20;99.90;;;;;;4992119;28;20471;-42
2023/01/29 03:46:52;;;;;;;17.65;15.18;;;4.20;99.90;;;;;;4982892;28;20572;-51
2023/01/29 03:49:31;;;;;;;17.30;14.75;;;4.20;99.90;;;;;;4990164;28;20053;-47
2023/01/29 03:52:03;;;;;;;21.10;15.35;;;4.20;99.90;;;;;;4979562;28;20046;-47
2023/01/29 03:54:51;;;;;;;18.92;14.15;;;4.20;99.90;;;;;;4968779;28;20056;-46
2023/01/29 03:57:32;;;;;;;19.23;15.77;;;4.20;99.90;;;;;;4969848;28;20485;-43
2023/01/29 04:00:07;;;;;;;17.77;14.35;;;4.20;99.90;;;;;;4985054;28;20443;-43
2023/01/29 04:02:56;;;;;;;19.70;14.70;;;4.20;99.90;;;;;;4991905;28;20045;-46
2023/01/29 04:05:26;;;;;;;17.58;14.73;;;4.20;99.90;;;;;;5004820;28;20046;-50
2023/01/29 04:08:01;;;;;;;17.90;14.15;;;4.20;99.90;;;;;;4975914;28;20079;-48
2023/01/29 04:10:29;;;;;;;17.30;14.38;;;4.20;99.90;;;;;;4990734;28;20045;-48
2023/01/29 04:13:03;;;;;;;16.95;13.82;;;4.20;99.90;;;;;;4985638;28;20065;-43
2023/01/29 04:15:32;;;;;;;18.17;15.23;;;4.20;99.90;;;;;;4979802;28;20045;-44
2023/01/29 04:17:58;;;;;;;17.35;14.80;;;4.20;99.90;;;;;;4991950;28;20049;-50
2023/01/29 04:20:24;;;;;;;17.05;14.75;;;4.20;99.90;;;;;;5005093;28;20061;-44
2023/01/29 04:22:51;;;;;;;16.75;14.95;;;4.20;99.90;;;;;;5014957;28;20041;-44
2023/01/29 04:25:31;;;;;;;19.75;15.52;;;4.20;99.90;;;;;;5015594;28;20396;-46
2023/01/29 04:28:03;;;;;;;20.75;15.85;;;4.20;99.90;;;;;;5015498;28;20041;-43
2023/01/29 04:30:47;;;;;;;19.55;15.77;;;4.20;99.90;;;;;;5014255;28;20136;-46
2023/01/29 04:33:51;;;;;;;20.15;14.52;;;4.20;99.90;;;;;;5015303;28;20057;-43
2023/01/29 04:36:23;;;;;;;19.23;14.95;;;4.20;99.90;;;;;;5014955;28;20052;-46
2023/01/29 04:39:04;;;;;;;17.40;14.82;;;4.20;99.90;;;;;;5014773;28;20432;-42
2023/01/29 04:41:52;;;;;;;19.42;14.50;;;4.20;99.90;;;;;;5013405;28;20049;-46
2023/01/29 04:44:31;;;;;;;17.95;14.60;;;4.20;99.90;;;;;;5013684;28;20448;-46
2023/01/29 04:47:15;;;;;;;18.25;14.60;;;4.20;99.90;;;;;;5014566;28;20045;-47
2023/01/29 04:49:44;;;;;;;18.05;15.60;;;4.20;99.90;;;;;;5012620;28;20045;-47
2023/01/29 04:52:28;;;;;;;17.17;14.38;;;4.20;99.90;;;;;;5013974;28;20053;-44
2023/01/29 04:55:06;;;;;;;17.90;14.98;;;4.20;99.90;;;;;;5014640;28;20061;-43
2023/01/29 04:57:50;;;;;;;18.17;15.20;;;4.20;99.90;;;;;;5014771;28;20053;-46
2023/01/29 05:00:33;;;;;;;17.67;14.85;;;4.30;99.90;;;;;;5010483;28;20034;-48
2023/01/29 05:03:00;;;;;;;14.05;11.88;;;4.30;99.90;;;;;;5005029;28;20053;-46
2023/01/29 05:05:26;;;;;;;19.88;16.92;;;4.30;99.90;;;;;;5011293;28;20050;-46
2023/01/29 05:07:54;;;;;;;21.63;16.85;;;4.20;99.90;;;;;;5011647;28;20049;-48
2023/01/29 05:10:21;;;;;;;24.90;19.13;;;4.30;99.90;;;;;;5011199;28;20064;-48
2023/01/29 05:12:53;;;;;;;28.70;21.38;;;4.30;99.90;;;;;;5006159;28;20100;-49
2023/01/29 05:15:24;;;;;;;22.83;19.27;;;4.30;99.90;;;;;;5013974;28;20440;-43
2023/01/29 05:17:52;;;;;;;24.27;19.20;;;4.20;99.90;;;;;;5014028;28;20079;-43
2023/01/29 05:20:19;;;;;;;25.63;19.63;;;4.30;99.90;;;;;;5012556;28;20041;-46
2023/01/29 05:22:47;;;;;;;23.00;19.02;;;4.20;99.90;;;;;;5013103;28;20088;-47
2023/01/29 05:25:23;;;;;;;26.55;20.35;;;4.20;99.90;;;;;;5012454;28;20121;-47
2023/01/29 05:28:02;;;;;;;25.27;20.15;;;4.20;99.90;;;;;;5013878;28;20522;-46
2023/01/29 05:30:28;;;;;;;26.95;21.50;;;4.20;99.90;;;;;;5013316;28;20049;-46
2023/01/29 05:32:54;;;;;;;27.23;22.33;;;4.20;99.90;;;;;;5014138;28;20335;-43
2023/01/29 05:35:19;;;;;;;30.25;22.60;;;4.20;99.90;;;;;;5013638;28;20077;-46
2023/01/29 05:37:45;;;;;;;31.98;23.77;;;4.20;99.90;;;;;;5013440;28;20157;-48
2023/01/29 05:40:11;;;;;;;30.95;25.17;;;4.20;99.90;;;;;;5011931;28;20046;-47
2023/01/29 05:42:37;;;;;;;29.65;24.35;;;4.20;99.90;;;;;;5013606;28;20038;-43
2023/01/29 05:45:03;;;;;;;31.33;23.75;;;4.10;99.90;;;;;;5012909;28;20311;-45
2023/01/29 05:47:28;;;;;;;27.85;23.23;;;4.20;99.90;;;;;;5016371;28;20072;-44
2023/01/29 05:49:54;;;;;;;27.55;22.58;;;4.20;99.90;;;;;;5016392;28;20507;-44
2023/01/29 05:52:20;;;;;;;32.20;23.67;;;4.20;99.90;;;;;;5016965;28;20045;-45
2023/01/29 05:54:45;;;;;;;28.48;23.80;;;4.20;99.90;;;;;;5017917;28;20056;-45
2023/01/29 05:57:11;;;;;;;28.10;23.42;;;4.20;99.90;;;;;;5017507;28;20171;-46
2023/01/29 05:59:36;;;;;;;31.17;23.83;;;4.20;99.90;;;;;;5016313;28;20052;-46
2023/01/29 06:02:02;;;;;;;27.80;23.45;;;4.20;99.90;;;;;;5017270;28;20091;-42
2023/01/29 06:04:28;;;;;;;33.50;25.75;;;4.10;99.90;;;;;;5017732;28;20126;-47
2023/01/29 06:06:53;;;;;;;32.42;25.98;;;4.10;99.90;;;;;;5032075;28;20535;-44
2023/01/29 06:09:19;;;;;;;36.53;29.05;;;4.10;99.90;;;;;;5016058;28;20384;-49
2023/01/29 06:11:45;;;;;;;34.95;28.23;;;4.10;99.90;;;;;;5010108;28;20534;-43
2023/01/29 06:14:10;;;;;;;36.85;29.50;;;4.10;99.90;;;;;;5018188;28;20049;-44
2023/01/29 06:16:36;;;;;;;35.75;30.63;;;4.10;99.90;;;;;;5017506;28;20049;-45
2023/01/29 06:19:02;;;;;;;40.03;31.58;;;4.00;99.90;;;;;;5032182;28;20061;-47
2023/01/29 06:21:27;;;;;;;44.72;34.17;;;4.00;99.90;;;;;;5015048;28;20484;-43
2023/01/29 06:23:53;;;;;;;41.47;32.78;;;4.00;99.90;;;;;;5015715;28;20109;-46
2023/01/29 06:26:19;;;;;;;44.65;33.92;;;4.00;99.90;;;;;;5017343;28;20046;-45
2023/01/29 06:28:48;;;;;;;46.42;34.58;;;4.00;99.90;;;;;;5016849;28;20281;-44
2023/01/29 06:31:13;;;;;;;45.72;35.20;;;4.00;99.90;;;;;;5015524;28;20115;-48
2023/01/29 06:33:39;;;;;;;45.08;36.40;;;4.00;99.90;;;;;;5016842;28;20527;-45
2023/01/29 06:36:05;;;;;;;48.42;38.05;;;4.00;99.90;;;;;;5030589;28;20505;-45
2023/01/29 06:38:31;;;;;;;47.38;37.08;;;3.90;99.90;;;;;;5015492;28;20077;-46
2023/01/29 06:40:57;;;;;;;43.70;35.05;;;4.00;99.90;;;;;;5014821;28;20045;-43
2023/01/29 06:43:23;;;;;;;43.90;35.92;;;3.90;99.90;;;;;;5016846;28;20050;-45
2023/01/29 06:45:56;;;;;;;44.78;36.17;;;4.00;99.90;;;;;;5016493;28;20380;-46
2023/01/29 06:48:23;;;;;;;47.42;38.05;;;3.90;99.90;;;;;;5030980;28;20973;-46
2023/01/29 06:50:49;;;;;;;46.03;35.28;;;3.90;99.90;;;;;;5014788;28;20492;-48
2023/01/29 06:53:16;;;;;;;45.22;35.28;;;3.90;99.90;;;;;;5016466;28;20167;-43
2023/01/29 06:55:43;;;;;;;47.40;37.80;;;3.90;99.90;;;;;;5014643;28;20622;-43
2023/01/29 06:58:10;;;;;;;44.10;35.67;;;3.90;99.90;;;;;;5001045;28;20410;-46
2023/01/29 07:00:37;;;;;;;43.05;35.83;;;3.90;99.90;;;;;;5001808;28;20045;-46
2023/01/29 07:03:04;;;;;;;46.70;36.83;;;3.90;99.90;;;;;;5016433;28;20636;-44
2023/01/29 07:05:30;;;;;;;47.33;36.08;;;3.90;99.90;;;;;;5017130;28;20060;-47
2023/01/29 07:07:56;;;;;;;46.63;36.42;;;3.90;99.90;;;;;;5016031;28;20555;-46
2023/01/29 07:10:22;;;;;;;44.35;35.03;;;3.90;99.90;;;;;;5014979;28;20073;-48
2023/01/29 07:12:48;;;;;;;46.03;35.78;;;3.90;99.90;;;;;;5008660;28;20493;-43
2023/01/29 07:15:13;;;;;;;45.60;36.55;;;3.90;99.90;;;;;;5016194;28;20049;-43
2023/01/29 07:17:39;;;;;;;44.55;36.55;;;3.90;99.90;;;;;;5016755;28;20041;-44
2023/01/29 07:20:06;;;;;;;43.50;37.08;;;3.90;99.90;;;;;;5015266;28;20049;-45
2023/01/29 07:22:32;;;;;;;42.53;35.83;;;3.90;99.90;;;;;;5014870;28;20500;-45
2023/01/29 07:24:57;;;;;;;42.00;35.78;;;3.90;99.90;;;;;;5017060;28;20044;-42
2023/01/29 07:27:23;;;;;;;48.05;37.70;;;3.90;99.90;;;;;;5011124;28;20317;-45
2023/01/29 07:29:49;;;;;;;44.22;35.05;;;3.80;99.90;;;;;;5013384;28;20049;-47
2023/01/29 07:32:15;;;;;;;41.83;34.05;;;3.80;99.90;;;;;;5015804;28;20091;-45
2023/01/29 07:34:40;;;;;;;44.40;34.55;;;3.80;99.90;;;;;;5015846;28;20656;-46
2023/01/29 07:37:06;;;;;;;46.00;35.15;;;3.90;99.90;;;;;;5016363;28;20046;-45
2023/01/29 07:39:32;;;;;;;44.40;34.83;;;3.90;99.90;;;;;;5014753;28;20038;-43
2023/01/29 07:41:57;;;;;;;42.60;34.25;;;3.90;99.90;;;;;;5015988;28;20042;-42
2023/01/29 07:44:23;;;;;;;43.25;33.97;;;3.90;99.90;;;;;;5015269;28;20353;-46
2023/01/29 07:46:49;;;;;;;42.50;34.30;;;3.90;99.90;;;;;;5014025;28;20542;-46
2023/01/29 07:49:15;;;;;;;45.55;34.75;;;3.90;99.90;;;;;;5014340;28;20064;-45
2023/01/29 07:51:41;;;;;;;45.50;34.75;;;3.90;99.90;;;;;;5015703;28;20046;-48
2023/01/29 07:54:06;;;;;;;47.50;36.63;;;3.90;99.90;;;;;;5015566;28;20063;-47
2023/01/29 07:56:32;;;;;;;45.33;35.63;;;3.90;99.90;;;;;;5015702;28;20095;-45
2023/01/29 07:58:58;;;;;;;52.67;34.33;;;3.90;99.90;;;;;;5014726;28;20034;-43
2023/01/29 08:01:23;;;;;;;50.42;38.15;;;4.00;99.90;;;;;;5014740;28;20041;-46
2023/01/29 08:03:49;;;;;;;49.42;35.67;;;4.00;99.90;;;;;;5014838;28;20064;-46
2023/01/29 08:06:15;;;;;;;48.70;35.25;;;3.90;99.90;;;;;;5016051;28;20045;-44
2023/01/29 08:08:41;;;;;;;49.35;37.17;;;4.00;99.90;;;;;;5013293;28;20049;-47
2023/01/29 08:11:07;;;;;;;51.72;36.72;;;4.00;99.90;;;;;;5003262;28;20392;-45
2023/01/29 08:13:33;;;;;;;51.88;37.50;;;4.00;99.90;;;;;;5013776;28;20120;-46
2023/01/29 08:16:00;;;;;;;50.63;37.38;;;4.10;99.90;;;;;;5015736;28;20405;-46
2023/01/29 08:18:26;;;;;;;55.33;40.22;;;4.10;99.90;;;;;;5013651;28;20084;-47
2023/01/29 08:20:51;;;;;;;52.15;37.55;;;4.00;99.90;;;;;;5029520;28;20496;-47
2023/01/29 08:23:17;;;;;;;52.35;39.22;;;4.20;99.90;;;;;;5015666;28;20454;-43
2023/01/29 08:25:43;;;;;;;51.40;37.20;;;4.20;99.90;;;;;;5014886;28;20392;-42
2023/01/29 08:28:10;;;;;;;50.35;38.63;;;4.20;99.90;;;;;;5014566;28;20049;-44
2023/01/29 08:30:37;;;;;;;54.08;40.40;;;4.10;99.90;;;;;;5013372;28;20081;-46
2023/01/29 08:33:03;;;;;;;54.90;38.97;;;4.10;99.90;;;;;;5013386;28;20563;-45
2023/01/29 08:35:29;;;;;;;54.92;40.30;;;4.20;99.90;;;;;;5015088;28;20045;-43
2023/01/29 08:37:58;;;;;;;56.97;37.50;;;4.20;99.90;;;;;;5014475;28;20079;-45
2023/01/29 08:40:24;;;;;;;51.78;38.88;;;4.30;99.90;;;;;;5013687;28;20073;-43
2023/01/29 08:42:50;;;;;;;57.10;40.13;;;4.30;99.90;;;;;;5014627;28;20429;-48
2023/01/29 08:45:16;;;;;;;50.67;38.50;;;4.30;99.90;;;;;;5014271;28;20542;-45
2023/01/29 08:47:46;;;;;;;50.90;37.78;;;4.30;99.90;;;;;;5012595;28;20048;-47
2023/01/29 08:50:12;;;;;;;55.08;37.25;;;4.30;99.90;;;;;;5013108;28;20095;-45
2023/01/29 08:52:38;;;;;;;48.72;38.13;;;4.40;99.90;;;;;;5014354;28;20088;-46
2023/01/29 08:55:04;;;;;;;51.95;37.88;;;4.30;99.90;;;;;;5014818;28;20041;-43
2023/01/29 08:57:30;;;;;;;48.78;36.95;;;4.30;99.90;;;;;;5014610;28;20060;-46
2023/01/29 08:59:55;;;;;;;44.80;35.80;;;4.40;99.90;;;;;;5013025;28;20487;-47
2023/01/29 09:02:21;;;;;;;54.88;37.17;;;4.40;99.90;;;;;;5013820;28;20038;-47
2023/01/29 09:04:47;;;;;;;49.58;38.03;;;4.40;99.90;;;;;;5012641;28;20042;-48
2023/01/29 09:07:12;;;;;;;46.97;37.30;;;4.40;99.90;;;;;;5013896;28;20156;-42
2023/01/29 09:09:38;;;;;;;48.17;36.58;;;4.40;99.90;;;;;;5012946;28;20048;-43
2023/01/29 09:12:04;;;;;;;51.28;35.38;;;4.40;99.90;;;;;;5006642;28;20888;-46
2023/01/29 09:14:29;;;;;;;45.08;35.38;;;4.40;99.90;;;;;;5014843;28;20592;-46
2023/01/29 09:16:56;;;;;;;48.22;35.75;;;4.40;99.90;;;;;;5014575;28;20128;-48
2023/01/29 09:19:21;;;;;;;45.55;35.22;;;4.40;99.90;;;;;;5028711;28;20067;-47
2023/01/29 09:21:48;;;;;;;51.70;36.95;;;4.50;99.90;;;;;;5014319;28;20500;-46
2023/01/29 09:24:14;;;;;;;49.97;34.97;;;4.50;99.90;;;;;;5014090;28;20041;-45
2023/01/29 09:26:40;;;;;;;50.67;36.65;;;4.50;99.90;;;;;;5013051;28;20041;-45
2023/01/29 09:29:08;;;;;;;47.92;36.63;;;4.50;99.90;;;;;;5012580;28;20037;-48
2023/01/29 09:31:34;;;;;;;53.05;36.05;;;4.50;99.90;;;;;;5000388;28;20053;-44
2023/01/29 09:33:59;;;;;;;49.72;36.20;;;4.60;99.90;;;;;;5014677;28;20111;-47
2023/01/29 09:36:25;;;;;;;48.47;37.03;;;4.60;99.90;;;;;;5014368;28;20077;-42
2023/01/29 09:38:51;;;;;;;51.90;36.40;;;4.60;99.90;;;;;;5013132;28;20191;-49
2023/01/29 09:41:43;;;;;;;54.80;37.72;;;4.50;99.90;;;;;;5013599;28;20049;-48
2023/01/29 09:44:32;;;;;;;45.63;35.85;;;4.60;99.90;;;;;;5013749;28;20053;-46
2023/01/29 09:47:03;;;;;;;46.78;35.65;;;4.50;99.90;;;;;;5013690;28;20099;-45
2023/01/29 09:49:41;;;;;;;50.78;36.88;;;4.50;99.90;;;;;;5012931;28;20116;-45
2023/01/29 09:52:29;;;;;;;54.13;38.58;;;4.50;99.90;;;;;;5012017;28;20041;-47
2023/01/29 09:55:19;;;;;;;52.13;38.08;;;4.50;99.90;;;;;;5009840;28;20057;-45
2023/01/29 09:57:58;;;;;;;54.35;38.72;;;4.50;99.90;;;;;;5012970;28;20050;-48
2023/01/29 10:00:42;;;;;;;53.55;38.85;;;4.50;99.90;;;;;;4997800;28;20038;-46
2023/01/29 10:03:13;;;;;;;;;;;4.50;99.90;;;;;;5014864;28;20046;-48
2023/01/29 10:05:51;;;;;;;58.35;37.90;;;4.50;99.90;;;;;;5006660;28;19921;-45
2023/01/29 10:08:29;;;;;;;52.95;38.00;;;4.60;99.90;;;;;;5007294;28;20183;-49
2023/01/29 10:11:13;;;;;;;60.53;38.88;;;4.60;99.90;;;;;;5008011;28;20501;-45
2023/01/29 10:14:14;;;;;;;62.80;41.47;;;4.50;99.90;;;;;;5027269;28;20508;-47
2023/01/29 10:17:10;;;;;;;63.45;40.28;;;4.50;99.90;;;;;;4954556;28;20059;-45
2023/01/29 10:19:38;;;;;;;60.47;40.65;;;4.60;99.90;;;;;;4969002;28;20205;-47
2023/01/29 10:22:09;;;;;;;62.45;41.25;;;4.60;99.90;;;;;;4971112;28;20058;-46
2023/01/29 10:24:45;;;;;;;57.63;39.60;;;4.70;99.90;;;;;;4971050;28;20054;-54
2023/01/29 10:27:16;;;;;;;57.50;39.55;;;4.70;99.90;;;;;;4971054;28;20114;-43
2023/01/29 10:29:43;;;;;;;57.42;38.45;;;4.70;99.90;;;;;;4969744;28;20465;-44
2023/01/29 10:32:22;;;;;;;60.53;38.22;;;4.70;99.90;;;;;;4971939;28;20137;-47
2023/01/29 10:35:12;;;;;;;60.67;38.60;;;4.80;99.90;;;;;;4962587;28;20065;-48
2023/01/29 10:37:42;;;;;;;56.03;38.05;;;4.80;99.90;;;;;;4974193;28;20366;-44
2023/01/29 10:40:42;;;;;;;55.42;36.95;;;4.80;99.90;;;;;;4973328;28;20165;-48
2023/01/29 10:43:14;;;;;;;54.47;38.10;;;4.90;99.90;;;;;;4964113;28;20560;-49
2023/01/29 10:45:59;;;;;;;53.45;36.95;;;4.90;99.90;;;;;;4974447;28;20051;-47
2023/01/29 10:48:41;;;;;;;51.30;35.22;;;4.90;99.90;;;;;;4974216;28;20053;-51
2023/01/29 10:51:15;;;;;;;49.78;35.45;;;4.90;99.90;;;;;;4962491;28;20442;-50
2023/01/29 10:54:02;;;;;;;55.47;37.35;;;5.00;99.90;;;;;;4999874;28;20053;-48
2023/01/29 10:56:36;;;;;;;52.42;36.13;;;4.90;99.90;;;;;;5014723;28;20049;-49
2023/01/29 10:59:40;;;;;;;52.42;37.92;;;5.00;99.90;;;;;;5003118;28;20049;-46
2023/01/29 11:02:15;;;;;;;53.83;35.97;;;5.00;99.90;;;;;;5005750;28;20053;-48
2023/01/29 11:04:41;;;;;;;55.50;37.20;;;5.00;99.90;;;;;;5014748;28;20053;-44
2023/01/29 11:07:07;;;;;;;49.65;35.67;;;5.00;99.90;;;;;;5015867;28;20049;-49
2023/01/29 11:09:44;;;;;;;47.05;33.72;;;5.00;99.90;;;;;;5015352;28;20479;-50
2023/01/29 11:12:19;;;;;;;48.65;34.83;;;5.10;99.90;;;;;;5009152;28;20049;-49
2023/01/29 11:14:51;;;;;;;48.40;34.90;;;5.00;99.90;;;;;;5016101;28;20056;-48
2023/01/29 11:17:20;;;;;;;46.13;32.78;;;5.10;99.90;;;;;;5016580;28;20111;-50
2023/01/29 11:19:47;;;;;;;45.22;34.83;;;5.20;99.90;;;;;;5014379;28;20045;-47
2023/01/29 11:22:21;;;;;;;56.80;37.92;;;5.10;99.90;;;;;;5016740;28;20049;-45
2023/01/29 11:25:09;;;;;;;67.15;44.28;;;5.10;99.90;;;;;;5015909;28;20400;-45
2023/01/29 11:27:43;;;;;;;63.50;49.40;;;5.10;99.90;;;;;;5015334;28;20054;-49
2023/01/29 11:30:18;;;;;;;;;;;5.10;99.90;;;;;;5014922;28;20080;-49
2023/01/29 11:32:48;;;;;;;44.13;31.27;;;5.20;99.90;;;;;;5015231;28;19925;-45
2023/01/29 11:35:14;;;;;;;44.42;31.48;;;5.20;99.90;;;;;;5015468;28;20495;-45
2023/01/29 11:37:44;;;;;;;44.63;32.55;;;5.20;99.90;;;;;;5014715;28;20050;-48
2023/01/29 11:40:19;;;;;;;39.72;29.98;;;5.30;99.90;;;;;;4994595;28;20042;-44
2023/01/29 11:42:49;;;;;;;41.67;30.15;;;5.30;99.90;;;;;;5004946;28;20053;-48
2023/01/29 11:45:28;;;;;;;42.85;29.58;;;5.40;99.90;;;;;;5006815;28;20065;-46
2023/01/29 11:47:55;;;;;;;42.08;30.00;;;5.30;99.90;;;;;;5025814;28;20498;-48
2023/01/29 11:50:31;;;;;;;42.17;30.88;;;5.40;99.90;;;;;;5009750;28;20114;-50
2023/01/29 11:53:02;;;;;;;44.72;31.63;;;5.40;99.90;;;;;;5013480;28;20081;-46
2023/01/29 11:55:32;;;;;;;41.10;31.77;;;5.50;99.90;;;;;;5015136;28;20139;-46
2023/01/29 11:58:01;;;;;;;41.55;29.25;;;5.40;99.90;;;;;;5015475;28;20523;-47
2023/01/29 12:00:30;;;;;;;38.95;30.20;;;5.50;99.90;;;;;;5013383;28;20061;-47
2023/01/29 12:03:11;;;;;;;46.25;31.30;;;5.50;99.90;;;;;;5015312;28;20076;-50
2023/01/29 12:05:39;;;;;;;41.78;29.80;;;5.50;99.90;;;;;;5014006;28;20099;-48
2023/01/29 12:08:16;;;;;;;38.63;28.40;;;5.60;99.90;;;;;;5014738;28;20128;-50
2023/01/29 12:10:42;;;;;;;42.20;30.00;;;5.50;99.90;;;;;;5011557;28;20049;-50
2023/01/29 12:13:20;;;;;;;67.53;50.17;;;5.50;99.90;;;;;;5009859;28;20052;-47
2023/01/29 12:15:47;;;;;;;48.28;38.97;;;5.40;99.90;;;;;;5013953;28;20136;-48
2023/01/29 12:19:03;;;;;;;48.42;37.55;;;5.50;99.90;;;;;;5014492;28;20581;-48
2023/01/29 12:21:42;;;;;;;50.80;34.72;;;5.50;99.90;;;;;;4991777;28;20536;-46
2023/01/29 12:24:24;;;;;;;44.08;32.72;;;5.40;99.90;;;;;;4991419;28;20058;-48
2023/01/29 12:26:58;;;;;;;48.63;34.55;;;5.30;99.90;;;;;;4991385;28;20050;-46
2023/01/29 12:29:36;;;;;;;50.15;37.53;;;5.20;99.90;;;;;;4989105;28;20049;-45
2023/01/29 12:32:18;;;;;;;43.60;33.90;;;5.20;99.90;;;;;;4991471;28;20301;-45
2023/01/29 12:35:19;;;;;;;50.97;36.15;;;5.20;99.90;;;;;;4990753;28;20111;-45
2023/01/29 12:38:00;;;;;;;49.95;36.00;;;5.20;99.90;;;;;;4977497;28;20715;-46
2023/01/29 12:40:33;;;;;;;52.00;37.53;;;5.20;99.90;;;;;;4974029;28;20049;-48
2023/01/29 12:43:05;;;;;;;54.58;37.05;;;5.20;99.90;;;;;;4991692;28;20409;-47
2023/01/29 12:45:32;;;;;;;48.08;35.50;;;5.20;99.90;;;;;;4989984;28;20161;-46
2023/01/29 12:48:05;;;;;;;49.90;36.90;;;5.10;99.90;;;;;;4990424;28;20480;-45
2023/01/29 12:50:35;;;;;;;51.43;37.23;;;5.10;99.90;;;;;;4990057;28;20257;-46
2023/01/29 12:53:26;;;;;;;47.50;35.15;;;5.00;99.90;;;;;;4991808;28;20572;-48
2023/01/29 12:56:07;;;;;;;53.45;37.22;;;5.00;99.90;;;;;;4989785;28;20502;-48
2023/01/29 12:58:38;;;;;;;53.47;36.85;;;5.00;99.90;;;;;;5012917;28;20124;-49
2023/01/29 13:01:15;;;;;;;50.35;35.22;;;4.90;99.90;;;;;;5013633;28;20313;-49
2023/01/29 13:04:05;;;;;;;56.92;37.38;;;5.00;99.90;;;;;;5011991;28;20041;-47
2023/01/29 13:06:41;;;;;;;52.92;34.47;;;4.90;99.90;;;;;;5013832;28;20056;-47
2023/01/29 13:09:14;;;;;;;53.90;35.88;;;4.90;99.90;;;;;;5011365;28;20065;-46
2023/01/29 13:12:02;;;;;;;49.17;34.03;;;4.80;99.90;;;;;;5006862;28;20555;-46
2023/01/29 13:14:51;;;;;;;52.75;36.00;;;4.90;99.90;;;;;;5014983;28;20064;-43
2023/01/29 13:17:30;;;;;;;49.90;35.10;;;4.80;99.90;;;;;;5012764;28;20120;-45
2023/01/29 13:20:16;;;;;;;51.40;36.40;;;4.90;99.90;;;;;;5027076;28;20132;-49
2023/01/29 13:22:45;;;;;;;57.53;37.00;;;4.80;99.90;;;;;;5012735;28;20045;-44
2023/01/29 13:25:16;;;;;;;55.45;37.55;;;4.80;99.90;;;;;;5011901;28;20049;-45
2023/01/29 13:27:44;;;;;;;56.92;37.35;;;4.90;99.90;;;;;;5013326;28;20049;-47